sensor_id;sensor_type;location;lat;lon;timestamp;P1;durP1;ratioP1;P2;durP2;ratioP2
61739;SDS011;47645;45.288;12.038;2023-04-08T00:02:56;10.6;;;7.1;;
61739;SDS011;47645;45.288;12.038;2023-04-08T00:12:57;10.0;;;7.7;;
61739;SDS011;47645;45.288;12.038;2023-04-08T00:22:57;10.5;;;6.7;;
61739;SDS011;47645;45.288;12.038;2023-04-08T00:32:58;8.3;;;7.0;;
61739;SDS011;47645;45.288;12.038;2023-04-08T00:42:59;16.5;;;9.9;;
61739;SDS011;47645;45.288;12.038;2023-04-08T00:53:00;12.3;;;8.5;;
61739;SDS011;47645;45.288;12.038;2023-04-08T01:03:01;9.3;;;7.0;;
61739;SDS011;47645;45.288;12.038;2023-04-08T01:13:02;8.9;;;6.1;;
61739;SDS011;47645;45.288;12.038;2023-04-08T01:23:07;13.0;;;9.9;;
61739;SDS011;47645;45.288;12.038;2023-04-08T01:33:03;17.0;;;11.9;;
61739;SDS011;47645;45.288;12.038;2023-04-08T01:43:04;13.3;;;8.1;;
61739;SDS011;47645;45.288;12.038;2023-04-08T01:53:04;13.8;;;8.2;;
61739;SDS011;47645;45.288;12.038;2023-04-08T02:03:05;19.5;;;12.7;;
61739;SDS011;47645;45.288;12.038;2023-04-08T02:13:05;22.4;;;14.5;;
61739;SDS011;47645;45.288;12.038;2023-04-08T02:23:08;20.7;;;14.4;;
61739;SDS011;47645;45.288;12.038;2023-04-08T02:33:07;20.9;;;15.2;;
61739;SDS011;47645;45.288;12.038;2023-04-08T02:43:07;24.5;;;16.0;;
61739;SDS011;47645;45.288;12.038;2023-04-08T02:53:08;27.3;;;19.6;;
61739;SDS011;47645;45.288;12.038;2023-04-08T03:03:08;28.3;;;21.0;;
61739;SDS011;47645;45.288;12.038;2023-04-08T03:13:09;29.3;;;21.5;;
61739;SDS011;47645;45.288;12.038;2023-04-08T03:23:10;30.4;;;22.6;;
61739;SDS011;47645;45.288;12.038;2023-04-08T03:33:10;30.2;;;20.1;;
61739;SDS011;47645;45.288;12.038;2023-04-08T03:43:12;26.6;;;19.1;;
61739;SDS011;47645;45.288;12.038;2023-04-08T03:53:12;26.2;;;18.1;;
61739;SDS011;47645;45.288;12.038;2023-04-08T04:03:12;32.1;;;20.4;;
61739;SDS011;47645;45.288;12.038;2023-04-08T04:13:13;30.1;;;19.8;;
61739;SDS011;47645;45.288;12.038;2023-04-08T04:23:14;28.3;;;18.0;;
61739;SDS011;47645;45.288;12.038;2023-04-08T04:33:14;29.0;;;19.5;;
61739;SDS011;47645;45.288;12.038;2023-04-08T04:43:15;27.2;;;19.4;;
61739;SDS011;47645;45.288;12.038;2023-04-08T04:53:15;27.0;;;18.2;;
61739;SDS011;47645;45.288;12.038;2023-04-08T05:03:16;35.2;;;21.9;;
61739;SDS011;47645;45.288;12.038;2023-04-08T05:13:17;30.2;;;21.0;;
61739;SDS011;47645;45.288;12.038;2023-04-08T05:23:17;31.2;;;20.6;;
61739;SDS011;47645;45.288;12.038;2023-04-08T05:33:18;35.7;;;20.6;;
61739;SDS011;47645;45.288;12.038;2023-04-08T05:43:19;33.1;;;21.0;;
61739;SDS011;47645;45.288;12.038;2023-04-08T05:53:19;35.2;;;24.2;;
61739;SDS011;47645;45.288;12.038;2023-04-08T06:03:20;34.5;;;23.6;;
61739;SDS011;47645;45.288;12.038;2023-04-08T06:13:21;33.8;;;25.1;;
61739;SDS011;47645;45.288;12.038;2023-04-08T06:23:21;32.1;;;21.2;;
61739;SDS011;47645;45.288;12.038;2023-04-08T06:33:22;34.8;;;26.8;;
61739;SDS011;47645;45.288;12.038;2023-04-08T06:43:23;30.6;;;21.4;;
61739;SDS011;47645;45.288;12.038;2023-04-08T06:53:24;31.0;;;22.4;;
61739;SDS011;47645;45.288;12.038;2023-04-08T07:03:24;29.8;;;21.6;;
61739;SDS011;47645;45.288;12.038;2023-04-08T07:13:25;30.2;;;20.6;;
61739;SDS011;47645;45.288;12.038;2023-04-08T07:23:25;28.8;;;19.8;;
61739;SDS011;47645;45.288;12.038;2023-04-08T07:33:26;23.5;;;17.6;;
61739;SDS011;47645;45.288;12.038;2023-04-08T07:43:27;22.4;;;15.9;;
61739;SDS011;47645;45.288;12.038;2023-04-08T07:53:27;23.3;;;15.7;;
61739;SDS011;47645;45.288;12.038;2023-04-08T08:03:28;21.5;;;15.1;;
61739;SDS011;47645;45.288;12.038;2023-04-08T08:13:30;19.9;;;13.6;;
61739;SDS011;47645;45.288;12.038;2023-04-08T08:23:30;20.0;;;14.1;;
61739;SDS011;47645;45.288;12.038;2023-04-08T08:33:31;15.1;;;8.9;;
61739;SDS011;47645;45.288;12.038;2023-04-08T08:43:32;15.5;;;9.1;;
61739;SDS011;47645;45.288;12.038;2023-04-08T08:53:33;8.3;;;5.0;;
61739;SDS011;47645;45.288;12.038;2023-04-08T09:03:34;9.5;;;5.7;;
61739;SDS011;47645;45.288;12.038;2023-04-08T09:13:35;10.0;;;5.0;;
61739;SDS011;47645;45.288;12.038;2023-04-08T09:23:37;5.4;;;2.9;;
61739;SDS011;47645;45.288;12.038;2023-04-08T09:33:36;6.7;;;3.5;;
61739;SDS011;47645;45.288;12.038;2023-04-08T09:43:39;10.6;;;5.6;;
61739;SDS011;47645;45.288;12.038;2023-04-08T09:53:40;6.7;;;4.5;;
61739;SDS011;47645;45.288;12.038;2023-04-08T10:03:39;6.7;;;3.3;;
61739;SDS011;47645;45.288;12.038;2023-04-08T10:13:40;5.9;;;3.0;;
61739;SDS011;47645;45.288;12.038;2023-04-08T10:23:57;6.0;;;3.0;;
61739;SDS011;47645;45.288;12.038;2023-04-08T10:33:42;6.1;;;2.9;;
61739;SDS011;47645;45.288;12.038;2023-04-08T10:43:43;7.7;;;2.7;;
61739;SDS011;47645;45.288;12.038;2023-04-08T10:53:44;5.9;;;2.7;;
61739;SDS011;47645;45.288;12.038;2023-04-08T11:03:45;4.2;;;2.3;;
61739;SDS011;47645;45.288;12.038;2023-04-08T11:13:46;3.8;;;2.0;;
61739;SDS011;47645;45.288;12.038;2023-04-08T11:23:48;5.2;;;2.5;;
61739;SDS011;47645;45.288;12.038;2023-04-08T11:33:51;7.1;;;2.2;;
61739;SDS011;47645;45.288;12.038;2023-04-08T11:43:50;4.7;;;2.2;;
61739;SDS011;47645;45.288;12.038;2023-04-08T11:53:51;4.2;;;2.3;;
61739;SDS011;47645;45.288;12.038;2023-04-08T12:03:54;4.4;;;1.7;;
61739;SDS011;47645;45.288;12.038;2023-04-08T12:13:53;3.1;;;1.7;;
61739;SDS011;47645;45.288;12.038;2023-04-08T12:23:55;5.0;;;2.1;;
61739;SDS011;47645;45.288;12.038;2023-04-08T12:33:56;3.6;;;1.5;;
61739;SDS011;47645;45.288;12.038;2023-04-08T12:43:57;4.2;;;1.7;;
61739;SDS011;47645;45.288;12.038;2023-04-08T12:53:59;6.1;;;2.1;;
61739;SDS011;47645;45.288;12.038;2023-04-08T13:04:00;5.1;;;1.7;;
61739;SDS011;47645;45.288;12.038;2023-04-08T13:14:01;3.6;;;1.7;;
61739;SDS011;47645;45.288;12.038;2023-04-08T13:24:02;5.0;;;1.9;;
61739;SDS011;47645;45.288;12.038;2023-04-08T13:34:03;4.6;;;1.9;;
61739;SDS011;47645;45.288;12.038;2023-04-08T13:44:05;4.0;;;2.0;;
61739;SDS011;47645;45.288;12.038;2023-04-08T13:54:06;5.0;;;2.1;;
61739;SDS011;47645;45.288;12.038;2023-04-08T14:04:07;2.6;;;1.6;;
61739;SDS011;47645;45.288;12.038;2023-04-08T14:14:08;5.1;;;1.8;;
61739;SDS011;47645;45.288;12.038;2023-04-08T14:24:09;2.8;;;1.4;;
61739;SDS011;47645;45.288;12.038;2023-04-08T14:34:10;4.3;;;1.9;;
61739;SDS011;47645;45.288;12.038;2023-04-08T14:44:12;3.1;;;1.7;;
61739;SDS011;47645;45.288;12.038;2023-04-08T14:54:13;3.9;;;1.6;;
61739;SDS011;47645;45.288;12.038;2023-04-08T15:04:14;4.3;;;1.8;;
61739;SDS011;47645;45.288;12.038;2023-04-08T15:14:15;6.5;;;2.1;;
61739;SDS011;47645;45.288;12.038;2023-04-08T15:24:16;5.5;;;1.9;;
61739;SDS011;47645;45.288;12.038;2023-04-08T15:34:17;2.9;;;1.7;;
61739;SDS011;47645;45.288;12.038;2023-04-08T15:44:18;2.7;;;1.5;;
61739;SDS011;47645;45.288;12.038;2023-04-08T15:54:20;3.7;;;1.7;;
61739;SDS011;47645;45.288;12.038;2023-04-08T16:04:22;3.4;;;1.7;;
61739;SDS011;47645;45.288;12.038;2023-04-08T16:14:22;6.3;;;1.8;;
61739;SDS011;47645;45.288;12.038;2023-04-08T16:24:23;3.8;;;1.8;;
61739;SDS011;47645;45.288;12.038;2023-04-08T16:34:24;5.0;;;2.5;;
61739;SDS011;47645;45.288;12.038;2023-04-08T16:44:25;5.2;;;1.9;;
61739;SDS011;47645;45.288;12.038;2023-04-08T16:54:26;7.0;;;2.8;;
61739;SDS011;47645;45.288;12.038;2023-04-08T17:04:27;3.8;;;2.1;;
61739;SDS011;47645;45.288;12.038;2023-04-08T17:14:28;4.6;;;2.2;;
61739;SDS011;47645;45.288;12.038;2023-04-08T17:24:29;4.6;;;2.2;;
61739;SDS011;47645;45.288;12.038;2023-04-08T17:34:32;3.4;;;1.9;;
61739;SDS011;47645;45.288;12.038;2023-04-08T17:44:30;6.5;;;2.7;;
61739;SDS011;47645;45.288;12.038;2023-04-08T17:54:33;2.7;;;1.8;;
61739;SDS011;47645;45.288;12.038;2023-04-08T18:04:33;4.3;;;2.5;;
61739;SDS011;47645;45.288;12.038;2023-04-08T18:14:35;4.9;;;2.6;;
61739;SDS011;47645;45.288;12.038;2023-04-08T18:24:34;4.8;;;2.9;;
61739;SDS011;47645;45.288;12.038;2023-04-08T18:34:35;2.2;;;1.8;;
61739;SDS011;47645;45.288;12.038;2023-04-08T18:44:36;6.3;;;3.3;;
61739;SDS011;47645;45.288;12.038;2023-04-08T18:54:36;6.5;;;4.0;;
61739;SDS011;47645;45.288;12.038;2023-04-08T19:04:37;6.6;;;5.0;;
61739;SDS011;47645;45.288;12.038;2023-04-08T19:14:38;7.3;;;3.9;;
61739;SDS011;47645;45.288;12.038;2023-04-08T19:24:40;18.2;;;11.4;;
61739;SDS011;47645;45.288;12.038;2023-04-08T19:34:41;7.7;;;6.0;;
61739;SDS011;47645;45.288;12.038;2023-04-08T19:44:41;7.2;;;5.9;;
61739;SDS011;47645;45.288;12.038;2023-04-08T19:54:43;7.0;;;4.0;;
61739;SDS011;47645;45.288;12.038;2023-04-08T20:04:43;8.3;;;4.5;;
61739;SDS011;47645;45.288;12.038;2023-04-08T20:14:44;10.6;;;7.0;;
61739;SDS011;47645;45.288;12.038;2023-04-08T20:24:45;9.9;;;7.4;;
61739;SDS011;47645;45.288;12.038;2023-04-08T20:34:45;9.4;;;6.8;;
61739;SDS011;47645;45.288;12.038;2023-04-08T20:44:46;13.6;;;7.1;;
61739;SDS011;47645;45.288;12.038;2023-04-08T20:54:47;12.7;;;6.7;;
61739;SDS011;47645;45.288;12.038;2023-04-08T21:04:47;11.4;;;6.7;;
61739;SDS011;47645;45.288;12.038;2023-04-08T21:14:50;11.7;;;8.0;;
61739;SDS011;47645;45.288;12.038;2023-04-08T21:24:49;12.7;;;8.7;;
61739;SDS011;47645;45.288;12.038;2023-04-08T21:34:51;14.1;;;9.8;;
61739;SDS011;47645;45.288;12.038;2023-04-08T21:44:50;11.5;;;7.7;;
61739;SDS011;47645;45.288;12.038;2023-04-08T21:54:51;10.0;;;7.1;;
61739;SDS011;47645;45.288;12.038;2023-04-08T22:04:52;7.6;;;5.6;;
61739;SDS011;47645;45.288;12.038;2023-04-08T22:14:53;7.2;;;5.3;;
61739;SDS011;47645;45.288;12.038;2023-04-08T22:24:54;12.0;;;8.0;;
61739;SDS011;47645;45.288;12.038;2023-04-08T22:34:55;10.1;;;7.2;;
61739;SDS011;47645;45.288;12.038;2023-04-08T22:44:56;12.2;;;7.9;;
61739;SDS011;47645;45.288;12.038;2023-04-08T22:54:56;7.8;;;5.0;;
61739;SDS011;47645;45.288;12.038;2023-04-08T23:04:58;7.5;;;4.1;;
61739;SDS011;47645;45.288;12.038;2023-04-08T23:14:58;4.7;;;3.3;;
61739;SDS011;47645;45.288;12.038;2023-04-08T23:24:59;6.7;;;4.0;;
61739;SDS011;47645;45.288;12.038;2023-04-08T23:35:00;6.6;;;4.0;;
61739;SDS011;47645;45.288;12.038;2023-04-08T23:45:01;4.7;;;3.2;;
61739;SDS011;47645;45.288;12.038;2023-04-08T23:55:01;4.8;;;3.2;;
